Terminal Aerodrome Forecast
Issued by NWS

Home | Current Version | Previous Version | Text Only | Print | Product List | Glossary On
Versions: 1 2 3 4 5 6 7 8 9 10 11 12
000
FTUS41 KBTV 270531
TAFMSS
TAF
KMSS 270531Z 2706/2806 33006KT P6SM SCT050 OVC070
     FM271000 32005KT P6SM -SHRA BKN035 OVC050
     FM271300 33007KT P6SM VCSH BKN030 OVC045
     FM271800 35009KT 6SM -SHRA BR OVC035
     FM272200 02008KT P6SM OVC040=

USA.gov is the U.S. government's official web portal to all federal, state and local government web resources and services.